createdAt,value
2023-02-27T00:01:18.291Z,100681.63
2023-02-27T00:03:48.500Z,100684.02
2023-02-27T00:06:17.393Z,100684.09
2023-02-27T00:08:46.266Z,100688.02
2023-02-27T00:11:14.765Z,100687.84
2023-02-27T00:13:44.080Z,100690.13
2023-02-27T00:16:12.961Z,100685.04
2023-02-27T00:18:46.897Z,100681.84
2023-02-27T00:21:15.444Z,100681.41
2023-02-27T00:23:42.805Z,100682.27
2023-02-27T00:26:10.815Z,100687.85
2023-02-27T00:28:38.635Z,100687.63
2023-02-27T00:31:08.219Z,100692.51
2023-02-27T00:33:37.732Z,100691.77
2023-02-27T00:36:06.328Z,100695.04
2023-02-27T00:38:36.046Z,100694.41
2023-02-27T00:41:03.495Z,100690.92
2023-02-27T00:43:32.384Z,100695.39
2023-02-27T00:46:03.381Z,100693.98
2023-02-27T00:48:30.677Z,100687.18
2023-02-27T00:50:58.377Z,100692.44
2023-02-27T00:53:25.803Z,100706.40
2023-02-27T00:55:54.277Z,100714.19
2023-02-27T00:58:22.702Z,100718.86
2023-02-27T01:00:50.347Z,100717.30
2023-02-27T01:03:20.437Z,100712.48
2023-02-27T01:05:49.123Z,100700.39
2023-02-27T01:08:17.839Z,100699.77
2023-02-27T01:10:45.981Z,100702.52
2023-02-27T01:13:13.956Z,100703.26
2023-02-27T01:15:41.726Z,100697.38
2023-02-27T01:18:10.303Z,100701.98
2023-02-27T01:20:40.989Z,100703.91
2023-02-27T01:23:08.334Z,100705.08
2023-02-27T01:25:39.921Z,100702.53
2023-02-27T01:28:07.194Z,100703.52
2023-02-27T01:30:35.021Z,100704.05
2023-02-27T01:33:03.137Z,100711.90
2023-02-27T01:35:31.418Z,100720.41
2023-02-27T01:37:59.072Z,100727.48
2023-02-27T01:40:26.731Z,100733.89
2023-02-27T01:42:53.987Z,100740.48
2023-02-27T01:45:35.996Z,100743.86
2023-02-27T01:48:07.226Z,100746.20
2023-02-27T01:50:35.967Z,100744.61
2023-02-27T01:53:05.931Z,100742.85
2023-02-27T01:55:37.443Z,100742.06
2023-02-27T01:58:06.480Z,100740.15
2023-02-27T02:00:34.256Z,100741.25
2023-02-27T02:03:39.996Z,100740.20
2023-02-27T02:06:07.450Z,100738.95
2023-02-27T02:08:45.675Z,100746.98
2023-02-27T02:11:13.634Z,100746.81
2023-02-27T02:13:40.886Z,100741.45
2023-02-27T02:16:21.401Z,100736.04
2023-02-27T02:19:22.285Z,100743.27
2023-02-27T02:21:51.074Z,100744.59
2023-02-27T02:24:46.588Z,100752.95
2023-02-27T02:27:49.383Z,100763.10
2023-02-27T02:30:16.604Z,100757.70
2023-02-27T02:33:22.997Z,100765.84
2023-02-27T02:35:57.326Z,100767.52
2023-02-27T02:38:33.829Z,100763.16
2023-02-27T02:41:14.551Z,100756.44
2023-02-27T02:43:48.367Z,100766.36
2023-02-27T02:46:29.847Z,100782.13
2023-02-27T02:49:05.625Z,100796.54
2023-02-27T02:51:48.103Z,100801.58
2023-02-27T02:55:05.034Z,100786.45
2023-02-27T02:57:38.827Z,100782.75
2023-02-27T03:00:25.129Z,100753.80
2023-02-27T03:03:20.940Z,100711.66
2023-02-27T03:05:58.262Z,100693.52
2023-02-27T03:08:31.012Z,100689.09
2023-02-27T03:11:05.250Z,100680.33
2023-02-27T03:13:36.784Z,100684.29
2023-02-27T03:16:28.157Z,100699.85
2023-02-27T03:19:05.274Z,100716.48
2023-02-27T03:21:39.189Z,100712.09
2023-02-27T03:24:07.900Z,100723.23
2023-02-27T03:26:40.657Z,100746.39
2023-02-27T03:29:10.547Z,100763.45
2023-02-27T03:31:46.475Z,100778.08
2023-02-27T03:34:19.316Z,100793.80
2023-02-27T03:36:59.049Z,100796.65
2023-02-27T03:39:41.863Z,100785.38
2023-02-27T03:42:46.980Z,100772.50
2023-02-27T03:45:54.188Z,100756.75
2023-02-27T03:48:28.359Z,100743.77
2023-02-27T03:50:55.758Z,100748.23
2023-02-27T03:53:33.278Z,100786.08
2023-02-27T03:56:05.434Z,100792.21
2023-02-27T03:58:33.201Z,100777.45
2023-02-27T04:01:21.562Z,100776.34
2023-02-27T04:03:54.412Z,100775.14
2023-02-27T04:06:54.849Z,100789.21
2023-02-27T04:09:40.124Z,100797.27
2023-02-27T04:12:25.900Z,100789.02
2023-02-27T04:15:27.721Z,100767.42
2023-02-27T04:18:21.845Z,100768.27
2023-02-27T04:20:59.801Z,100767.74
2023-02-27T04:23:40.943Z,100772.64
2023-02-27T04:26:31.840Z,100774.27
2023-02-27T04:29:07.829Z,100766.36
2023-02-27T04:31:46.158Z,100755.78
2023-02-27T04:34:30.969Z,100748.77
2023-02-27T04:37:06.852Z,100761.50
2023-02-27T04:39:51.608Z,100762.19
2023-02-27T04:42:21.409Z,100761.73
2023-02-27T04:44:50.709Z,100761.69
2023-02-27T04:47:18.002Z,100762.35
2023-02-27T04:49:55.042Z,100764.59
2023-02-27T04:52:24.991Z,100765.28
2023-02-27T04:55:14.841Z,100760.66
2023-02-27T04:58:07.586Z,100754.98
2023-02-27T05:00:35.145Z,100754.28
2023-02-27T05:03:17.651Z,100754.81
2023-02-27T05:05:45.827Z,100754.20
2023-02-27T05:08:43.391Z,100763.30
2023-02-27T05:11:32.040Z,100768.20
2023-02-27T05:14:04.117Z,100767.59
2023-02-27T05:16:50.091Z,100759.41
2023-02-27T05:19:47.171Z,100754.70
2023-02-27T05:22:48.503Z,100757.39
2023-02-27T05:25:31.657Z,100770.05
2023-02-27T05:28:11.574Z,100778.55
2023-02-27T05:30:59.104Z,100775.91
2023-02-27T05:33:41.588Z,100782.44
2023-02-27T05:36:45.938Z,100781.82
2023-02-27T05:39:13.894Z,100793.50
2023-02-27T05:41:47.133Z,100797.60
2023-02-27T05:44:20.020Z,100800.89
2023-02-27T05:47:02.065Z,100799.79
2023-02-27T05:49:36.529Z,100801.30
2023-02-27T05:52:04.867Z,100806.46
2023-02-27T05:54:42.564Z,100810.27
2023-02-27T05:57:12.930Z,100810.55
2023-02-27T06:00:07.793Z,100809.87
2023-02-27T06:02:41.087Z,100807.16
2023-02-27T06:05:09.009Z,100811.29
2023-02-27T06:07:38.682Z,100814.92
2023-02-27T06:10:08.685Z,100816.04
2023-02-27T06:12:37.362Z,100818.45
2023-02-27T06:15:07.950Z,100822.17
2023-02-27T06:17:38.744Z,100817.85
2023-02-27T06:20:07.813Z,100813.64
2023-02-27T06:22:35.735Z,100809.11
2023-02-27T06:25:03.266Z,100810.88
2023-02-27T06:27:32.036Z,100816.05
2023-02-27T06:30:04.411Z,100802.04
2023-02-27T06:32:33.436Z,100806.39
2023-02-27T06:35:09.403Z,100807.72
2023-02-27T06:37:38.630Z,100807.14
2023-02-27T06:40:11.203Z,100804.44
2023-02-27T06:42:41.756Z,100805.40
2023-02-27T06:45:10.900Z,100807.16
2023-02-27T06:47:40.378Z,100808.23
2023-02-27T06:50:10.689Z,100814.46
2023-02-27T06:52:39.779Z,100813.45
2023-02-27T06:55:09.410Z,100812.39
2023-02-27T06:57:38.482Z,100816.70
2023-02-27T07:00:12.168Z,100812.45
2023-02-27T07:02:40.568Z,100801.12
2023-02-27T07:05:08.884Z,100801.14
2023-02-27T07:07:37.995Z,100800.27
2023-02-27T07:10:10.802Z,100798.84
2023-02-27T07:12:40.064Z,100798.52
2023-02-27T07:15:09.601Z,100801.60
2023-02-27T07:17:38.218Z,100804.39
2023-02-27T07:20:10.065Z,100798.06
2023-02-27T07:22:39.266Z,100794.38
2023-02-27T07:25:09.644Z,100791.67
2023-02-27T07:27:38.407Z,100792.64
2023-02-27T07:30:10.595Z,100794.30
2023-02-27T07:32:38.987Z,100792.16
2023-02-27T07:35:08.086Z,100796.42
2023-02-27T07:37:35.736Z,100804.98
2023-02-27T07:40:05.075Z,100808.05
2023-02-27T07:42:34.086Z,100811.60
2023-02-27T07:45:02.151Z,100809.91
2023-02-27T07:47:30.054Z,100813.95
2023-02-27T07:49:57.684Z,100815.53
2023-02-27T07:52:25.853Z,100814.38
2023-02-27T07:54:53.725Z,100815.65
2023-02-27T07:57:21.293Z,100813.81
2023-02-27T07:59:49.050Z,100818.59
2023-02-27T08:02:16.813Z,100821.50
2023-02-27T08:04:44.302Z,100821.99
2023-02-27T08:07:13.008Z,100821.16
2023-02-27T08:09:44.504Z,100820.33
2023-02-27T08:12:12.279Z,100818.09
2023-02-27T08:14:39.925Z,100816.56
2023-02-27T08:17:08.532Z,100820.45
2023-02-27T08:19:36.823Z,100820.10
2023-02-27T08:22:04.604Z,100815.52
2023-02-27T08:24:34.265Z,100812.92
2023-02-27T08:27:02.461Z,100809.84
2023-02-27T08:29:32.652Z,100814.56
2023-02-27T08:32:01.966Z,100811.69
2023-02-27T08:34:30.047Z,100813.21
2023-02-27T08:36:59.544Z,100807.07
2023-02-27T08:39:34.262Z,100803.58
2023-02-27T08:42:02.236Z,100801.50
2023-02-27T08:44:29.987Z,100807.66
2023-02-27T08:46:58.043Z,100807.09
2023-02-27T08:49:26.038Z,100815.09
2023-02-27T08:51:54.000Z,100824.69
2023-02-27T08:54:22.472Z,100820.45
2023-02-27T08:56:50.018Z,100820.27
2023-02-27T08:59:17.508Z,100815.63
2023-02-27T09:01:45.364Z,100819.23
2023-02-27T09:04:12.719Z,100822.46
2023-02-27T09:06:40.789Z,100825.34
2023-02-27T09:09:09.373Z,100829.65
2023-02-27T09:11:38.667Z,100824.70
2023-02-27T09:14:06.650Z,100834.48
2023-02-27T09:16:39.155Z,100831.37
2023-02-27T09:19:07.598Z,100824.82
2023-02-27T09:21:37.020Z,100823.55
2023-02-27T09:24:18.606Z,100817.80
2023-02-27T09:26:48.301Z,100810.67
2023-02-27T09:29:17.501Z,100812.95
2023-02-27T09:31:44.752Z,100810.40
2023-02-27T09:34:12.915Z,100809.11
2023-02-27T09:36:41.401Z,100804.35
2023-02-27T09:39:09.827Z,100804.19
2023-02-27T09:41:57.832Z,100804.02
2023-02-27T09:44:45.190Z,100798.87
2023-02-27T09:47:37.898Z,100802.27
2023-02-27T09:50:21.695Z,100809.95
2023-02-27T09:52:49.287Z,100810.11
2023-02-27T09:55:21.578Z,100806.29
2023-02-27T10:04:45.597Z,100796.39
2023-02-27T10:07:28.189Z,100795.45
2023-02-27T10:10:21.295Z,100793.36
2023-02-27T10:13:07.824Z,100794.98
2023-02-27T10:15:41.264Z,100791.83
2023-02-27T10:18:27.635Z,100787.20
2023-02-27T10:21:11.430Z,100785.21
2023-02-27T10:23:53.514Z,100779.65
2023-02-27T10:26:27.639Z,100779.70
2023-02-27T10:28:58.344Z,100778.49
2023-02-27T10:31:30.699Z,100771.48
2023-02-27T10:34:00.543Z,100770.48
2023-02-27T10:36:34.888Z,100767.92
2023-02-27T10:39:08.321Z,100773.87
2023-02-27T10:41:37.160Z,100775.34
2023-02-27T10:44:08.577Z,100781.48
2023-02-27T10:46:39.758Z,100779.77
2023-02-27T10:49:17.564Z,100780.88
2023-02-27T10:52:03.917Z,100785.66
2023-02-27T10:54:33.444Z,100792.98
2023-02-27T10:57:05.591Z,100799.05
2023-02-27T10:59:40.601Z,100796.32
2023-02-27T11:02:21.122Z,100803.05
2023-02-27T11:04:54.734Z,100802.16
2023-02-27T11:07:34.694Z,100807.23
2023-02-27T11:10:23.655Z,100804.45
2023-02-27T11:13:03.303Z,100810.23
2023-02-27T11:15:36.239Z,100809.50
2023-02-27T11:18:24.781Z,100809.98
2023-02-27T11:20:53.707Z,100808.48
2023-02-27T11:23:26.697Z,100805.46
2023-02-27T11:26:16.653Z,100805.44
2023-02-27T11:28:46.026Z,100808.19
2023-02-27T11:31:20.024Z,100813.88
2023-02-27T11:33:54.589Z,100819.00
2023-02-27T11:36:24.352Z,100830.55
2023-02-27T11:38:54.667Z,100837.99
2023-02-27T11:41:30.666Z,100837.88
2023-02-27T11:43:59.370Z,100847.67
2023-02-27T11:46:46.804Z,100846.11
2023-02-27T11:49:32.965Z,100857.61
2023-02-27T11:52:19.079Z,100858.27
2023-02-27T11:54:51.148Z,100852.33
2023-02-27T11:57:19.725Z,100852.98
2023-02-27T12:00:07.309Z,100855.73
2023-02-27T12:03:00.966Z,100845.54
2023-02-27T12:05:33.816Z,100845.98
2023-02-27T12:08:43.148Z,100852.73
2023-02-27T12:11:42.035Z,100861.32
2023-02-27T12:14:28.900Z,100863.98
2023-02-27T12:17:03.251Z,100857.63
2023-02-27T12:19:39.017Z,100860.55
2023-02-27T12:22:26.239Z,100856.17
2023-02-27T12:24:59.535Z,100863.73
2023-02-27T12:27:49.286Z,100862.64
2023-02-27T12:30:29.309Z,100855.51
2023-02-27T12:33:21.095Z,100856.77
2023-02-27T12:35:56.328Z,100851.60
2023-02-27T12:38:24.914Z,100849.98
2023-02-27T12:41:18.902Z,100847.67
2023-02-27T12:43:53.620Z,100843.11
2023-02-27T12:46:28.442Z,100841.86
2023-02-27T12:49:34.388Z,100839.16
2023-02-27T12:52:32.376Z,100845.06
2023-02-27T12:55:08.202Z,100848.85
2023-02-27T12:58:05.802Z,100853.55
2023-02-27T13:01:01.342Z,100853.92
2023-02-27T13:03:59.985Z,100854.66
2023-02-27T13:06:54.197Z,100851.66
2023-02-27T13:09:33.063Z,100851.53
2023-02-27T13:12:39.890Z,100849.88
2023-02-27T13:15:22.502Z,100850.13
2023-02-27T13:18:04.908Z,100853.63
2023-02-27T13:20:39.663Z,100853.79
2023-02-27T13:23:08.751Z,100863.35
2023-02-27T13:25:37.628Z,100868.86
2023-02-27T13:28:11.702Z,100867.31
2023-02-27T13:30:44.663Z,100864.29
2023-02-27T13:33:30.747Z,100854.27
2023-02-27T13:36:05.833Z,100854.91
2023-02-27T13:38:49.317Z,100848.04
2023-02-27T13:41:24.587Z,100846.20
2023-02-27T13:43:58.641Z,100849.26
2023-02-27T13:46:27.520Z,100844.79
2023-02-27T13:49:26.997Z,100842.96
2023-02-27T13:51:59.929Z,100849.29
2023-02-27T13:54:36.663Z,100846.27
2023-02-27T13:57:07.320Z,100842.92
2023-02-27T13:59:37.607Z,100839.71
2023-02-27T14:02:12.712Z,100843.48
2023-02-27T14:04:49.769Z,100846.23
2023-02-27T14:07:24.712Z,100853.02
2023-02-27T14:10:00.647Z,100848.27
2023-02-27T14:12:42.587Z,100856.66
2023-02-27T14:15:18.321Z,100861.71
2023-02-27T14:17:59.602Z,100861.16
2023-02-27T14:20:41.173Z,100859.67
2023-02-27T14:23:17.638Z,100865.86
2023-02-27T14:25:54.515Z,100860.35
2023-02-27T14:28:32.465Z,100853.48
2023-02-27T14:31:42.809Z,100852.58
2023-02-27T14:34:14.958Z,100851.05
2023-02-27T14:36:50.526Z,100849.27
2023-02-27T14:39:33.969Z,100853.75
2023-02-27T14:42:10.307Z,100857.36
2023-02-27T14:44:41.975Z,100856.93
2023-02-27T14:47:38.006Z,100855.68
2023-02-27T14:50:29.022Z,100855.11
2023-02-27T14:52:59.403Z,100858.08
2023-02-27T14:55:30.289Z,100855.84
2023-02-27T14:58:02.412Z,100860.33
2023-02-27T15:00:42.691Z,100862.34
2023-02-27T15:03:23.133Z,100868.02
2023-02-27T15:05:53.698Z,100869.86
2023-02-27T15:08:24.799Z,100862.98
2023-02-27T15:10:56.396Z,100857.20
2023-02-27T15:13:29.108Z,100851.20
2023-02-27T15:16:26.244Z,100855.32
2023-02-27T15:19:21.738Z,100861.33
2023-02-27T15:21:56.413Z,100864.05
2023-02-27T15:24:35.292Z,100869.56
2023-02-27T15:27:23.334Z,100870.56
2023-02-27T15:29:56.754Z,100877.73
2023-02-27T15:32:30.816Z,100874.11
2023-02-27T15:35:12.697Z,100870.28
2023-02-27T15:37:41.790Z,100873.02
2023-02-27T15:40:13.496Z,100872.99
2023-02-27T15:42:45.009Z,100872.39
2023-02-27T15:45:22.000Z,100875.30
2023-02-27T15:47:53.529Z,100884.02
2023-02-27T15:50:48.642Z,100896.26
2023-02-27T15:53:28.787Z,100898.19
2023-02-27T15:56:06.382Z,100904.28
2023-02-27T15:58:49.088Z,100910.30
2023-02-27T16:01:20.798Z,100911.80
2023-02-27T16:03:51.968Z,100919.45
2023-02-27T16:06:41.909Z,100927.11
2023-02-27T16:09:22.486Z,100938.09
2023-02-27T16:12:11.366Z,100942.28
2023-02-27T16:14:44.486Z,100948.32
2023-02-27T16:17:31.034Z,100956.75
2023-02-27T16:20:02.423Z,100960.02
2023-02-27T16:22:31.749Z,100954.02
2023-02-27T16:25:10.995Z,100953.49
2023-02-27T16:27:41.355Z,100965.04
2023-02-27T16:30:11.837Z,100975.27
2023-02-27T16:32:44.356Z,100975.86
2023-02-27T16:35:21.399Z,100970.23
2023-02-27T16:37:50.689Z,100976.64
2023-02-27T16:40:25.524Z,100981.55
2023-02-27T16:42:54.208Z,100996.05
2023-02-27T16:45:45.459Z,100994.25
2023-02-27T16:48:14.939Z,100985.92
2023-02-27T16:51:12.894Z,100983.03
2023-02-27T16:54:02.166Z,100979.11
2023-02-27T16:56:38.246Z,100978.94
2023-02-27T16:59:29.925Z,100983.11
2023-02-27T17:01:58.842Z,100989.00
2023-02-27T17:04:28.294Z,100992.92
2023-02-27T17:06:59.753Z,100988.32
2023-02-27T17:09:29.542Z,100980.54
2023-02-27T17:11:58.505Z,100982.77
2023-02-27T17:14:30.567Z,100986.23
2023-02-27T17:17:19.162Z,100988.06
2023-02-27T17:19:48.415Z,100998.98
2023-02-27T17:22:19.524Z,101000.48
2023-02-27T17:24:49.174Z,100993.59
2023-02-27T17:27:17.950Z,100988.09
2023-02-27T17:29:47.971Z,100979.48
2023-02-27T17:32:16.779Z,100992.52
2023-02-27T17:34:46.059Z,100992.95
2023-02-27T17:37:17.128Z,100993.37
2023-02-27T17:39:46.535Z,101003.73
2023-02-27T17:42:19.188Z,101006.04
2023-02-27T17:44:48.315Z,101008.42
2023-02-27T17:47:17.167Z,101005.17
2023-02-27T17:49:46.576Z,101010.75
2023-02-27T17:52:16.095Z,101011.45
2023-02-27T17:54:45.620Z,101006.35
2023-02-27T17:57:19.936Z,101012.80
2023-02-27T17:59:50.328Z,101008.85
2023-02-27T18:02:20.451Z,101008.02
2023-02-27T18:04:50.147Z,101015.78
2023-02-27T18:07:23.104Z,101020.44
2023-02-27T18:09:56.530Z,101025.20
2023-02-27T18:12:25.835Z,101026.80
2023-02-27T18:15:01.081Z,101030.35
2023-02-27T18:17:30.365Z,101031.34
2023-02-27T18:19:59.369Z,101030.25
2023-02-27T18:22:30.405Z,101032.11
2023-02-27T18:25:02.056Z,101040.17
2023-02-27T18:27:31.564Z,101042.84
2023-02-27T18:30:00.873Z,101046.53
2023-02-27T18:32:34.461Z,101049.14
2023-02-27T18:35:05.222Z,101058.16
2023-02-27T18:37:34.496Z,101055.70
2023-02-27T18:40:04.935Z,101053.50
2023-02-27T18:42:40.983Z,101050.52
2023-02-27T18:45:11.819Z,101053.91
2023-02-27T18:47:41.580Z,101054.42
2023-02-27T18:50:10.909Z,101050.03
2023-02-27T18:52:40.433Z,101051.85
2023-02-27T18:55:09.837Z,101054.27
2023-02-27T18:57:38.837Z,101047.11
2023-02-27T19:00:10.876Z,101054.30
2023-02-27T19:02:42.001Z,101064.42
2023-02-27T19:05:12.754Z,101063.23
2023-02-27T19:07:41.887Z,101063.31
2023-02-27T19:10:11.418Z,101071.47
2023-02-27T19:12:40.467Z,101066.88
2023-02-27T19:15:12.252Z,101070.02
2023-02-27T19:17:44.083Z,101076.16
2023-02-27T19:20:17.672Z,101077.77
2023-02-27T19:22:46.377Z,101080.52
2023-02-27T19:25:16.387Z,101087.91
2023-02-27T19:27:47.123Z,101095.49
2023-02-27T19:30:15.755Z,101093.23
2023-02-27T19:32:47.257Z,101090.81
2023-02-27T19:35:19.631Z,101092.70
2023-02-27T19:37:57.436Z,101093.64
2023-02-27T19:40:32.477Z,101088.59
2023-02-27T19:43:06.460Z,101088.96
2023-02-27T19:45:35.986Z,101092.21
2023-02-27T19:48:06.103Z,101088.56
2023-02-27T19:50:35.400Z,101089.61
2023-02-27T19:53:04.903Z,101089.95
2023-02-27T19:55:33.705Z,101090.96
2023-02-27T19:58:02.789Z,101096.44
2023-02-27T20:00:32.794Z,101101.77
2023-02-27T20:03:02.018Z,101101.19
2023-02-27T20:05:30.906Z,101100.66
2023-02-27T20:07:59.898Z,101101.39
2023-02-27T20:10:28.977Z,101096.54
2023-02-27T20:12:58.795Z,101098.23
2023-02-27T20:15:30.464Z,101104.84
2023-02-27T20:17:59.558Z,101112.22
2023-02-27T20:20:31.130Z,101114.15
2023-02-27T20:23:00.911Z,101110.02
2023-02-27T20:25:30.206Z,101111.66
2023-02-27T20:27:59.506Z,101110.22
2023-02-27T20:30:29.219Z,101110.27
2023-02-27T20:32:58.924Z,101111.23
2023-02-27T20:35:29.155Z,101108.38
2023-02-27T20:37:59.677Z,101113.95
2023-02-27T20:40:29.383Z,101121.19
2023-02-27T20:42:58.685Z,101124.88
2023-02-27T20:45:28.701Z,101126.95
2023-02-27T20:47:57.723Z,101118.64
2023-02-27T20:50:26.382Z,101114.70
2023-02-27T20:52:55.373Z,101114.66
2023-02-27T20:55:24.376Z,101120.55
2023-02-27T20:57:53.571Z,101122.09
2023-02-27T21:00:22.868Z,101128.73
2023-02-27T21:02:52.110Z,101129.36
2023-02-27T21:05:20.974Z,101133.05
2023-02-27T21:07:50.050Z,101133.39
2023-02-27T21:10:19.041Z,101136.88
2023-02-27T21:19:23.304Z,101153.80
2023-02-27T21:21:52.086Z,101157.77
2023-02-27T21:24:21.900Z,101160.02
2023-02-27T21:26:50.697Z,101165.48
2023-02-27T21:29:20.764Z,101162.03
2023-02-27T21:31:49.768Z,101159.22
2023-02-27T21:34:21.116Z,101156.57
2023-02-27T21:36:54.465Z,101155.09
2023-02-27T21:39:43.028Z,101155.95
2023-02-27T21:42:14.666Z,101154.25
2023-02-27T21:44:45.397Z,101159.78
2023-02-27T21:47:17.448Z,101163.55
2023-02-27T21:49:47.475Z,101166.85
2023-02-27T21:52:16.456Z,101167.66
2023-02-27T21:54:45.035Z,101168.52
2023-02-27T21:57:14.028Z,101166.80
2023-02-27T21:59:45.990Z,101168.02
2023-02-27T22:02:15.070Z,101170.11
2023-02-27T22:04:43.977Z,101177.02
2023-02-27T22:07:12.867Z,101177.00
2023-02-27T22:09:45.954Z,101175.69
2023-02-27T22:12:18.429Z,101179.81
2023-02-27T22:14:47.832Z,101184.22
2023-02-27T22:17:16.519Z,101194.05
2023-02-27T22:19:45.613Z,101198.60
2023-02-27T22:22:15.120Z,101193.34
2023-02-27T22:24:43.814Z,101190.29
2023-02-27T22:27:15.767Z,101192.34
2023-02-27T22:29:45.068Z,101191.65
2023-02-27T22:32:16.958Z,101189.92
2023-02-27T22:34:49.923Z,101179.46
2023-02-27T22:37:20.268Z,101182.51
2023-02-27T22:39:48.719Z,101184.89
2023-02-27T22:42:17.512Z,101187.56
2023-02-27T22:44:46.090Z,101198.88
2023-02-27T22:47:18.002Z,101204.10
2023-02-27T22:49:47.197Z,101200.34
2023-02-27T22:52:16.035Z,101205.60
2023-02-27T22:54:45.033Z,101215.85
2023-02-27T22:57:14.499Z,101215.02
2023-02-27T22:59:45.881Z,101218.27
2023-02-27T23:02:14.583Z,101227.63
2023-02-27T23:04:43.565Z,101231.63
2023-02-27T23:07:12.139Z,101241.58
2023-02-27T23:09:41.034Z,101241.20
2023-02-27T23:12:16.135Z,101243.16
2023-02-27T23:14:45.305Z,101245.36
2023-02-27T23:17:14.161Z,101246.68
2023-02-27T23:20:02.154Z,101247.93
2023-02-27T23:22:35.285Z,101247.95
2023-02-27T23:25:07.664Z,101252.40
2023-02-27T23:27:36.279Z,101249.06
2023-02-27T23:30:06.575Z,101247.38
2023-02-27T23:32:44.515Z,101248.55
2023-02-27T23:35:15.297Z,101249.26
2023-02-27T23:37:45.009Z,101251.41
2023-02-27T23:40:14.718Z,101251.05
2023-02-27T23:43:02.221Z,101259.16
2023-02-27T23:45:33.949Z,101268.80
2023-02-27T23:48:03.521Z,101280.70
2023-02-27T23:50:34.342Z,101282.11
2023-02-27T23:53:03.654Z,101274.98
2023-02-27T23:55:35.472Z,101270.79
2023-02-27T23:58:05.849Z,101274.58
